createdAt,value
2022-12-20T00:02:19.061Z,61.19
2022-12-20T00:07:20.597Z,60.34
2022-12-20T00:12:22.074Z,60.67
2022-12-20T00:17:23.838Z,60.55
2022-12-20T00:22:25.381Z,59.99
2022-12-20T00:27:26.855Z,59.60
2022-12-20T00:32:28.330Z,59.53
2022-12-20T00:37:29.790Z,60.03
2022-12-20T00:42:31.257Z,60.17
2022-12-20T00:47:33.529Z,59.10
2022-12-20T00:52:35.053Z,59.66
2022-12-20T00:57:36.528Z,59.70
2022-12-20T01:02:38.211Z,58.68
2022-12-20T01:07:39.835Z,59.37
2022-12-20T01:12:41.315Z,59.38
2022-12-20T01:17:42.777Z,58.33
2022-12-20T01:22:47.601Z,58.23
2022-12-20T01:27:49.667Z,58.01
2022-12-20T01:32:51.118Z,58.88
2022-12-20T01:37:52.595Z,58.80
2022-12-20T01:42:54.217Z,59.16
2022-12-20T01:47:56.698Z,58.69
2022-12-20T01:53:00.063Z,58.60
2022-12-20T01:58:05.898Z,59.37
2022-12-20T02:03:09.356Z,59.40
2022-12-20T02:08:11.475Z,59.46
2022-12-20T02:13:19.929Z,60.52
2022-12-20T02:18:22.563Z,60.54
2022-12-20T02:23:33.169Z,60.38
2022-12-20T02:28:50.917Z,59.52
2022-12-20T02:33:52.392Z,59.81
2022-12-20T02:38:53.916Z,59.38
2022-12-20T02:44:21.354Z,60.23
2022-12-20T02:49:24.051Z,59.58
2022-12-20T02:54:25.521Z,59.57
2022-12-20T02:59:41.483Z,59.98
2022-12-20T03:04:42.998Z,58.76
2022-12-20T03:09:44.891Z,59.10
2022-12-20T03:14:46.354Z,59.46
2022-12-20T03:19:47.824Z,59.51
2022-12-20T03:24:49.857Z,58.49
2022-12-20T03:29:51.332Z,58.98
2022-12-20T03:34:52.803Z,58.38
2022-12-20T03:39:54.272Z,58.88
2022-12-20T03:44:55.819Z,58.58
2022-12-20T03:49:57.431Z,59.23
2022-12-20T03:54:58.915Z,59.27
2022-12-20T04:00:00.440Z,59.66
2022-12-20T04:05:01.902Z,59.83
2022-12-20T04:10:03.621Z,59.43
2022-12-20T04:15:05.449Z,59.22
2022-12-20T04:20:19.142Z,59.32
2022-12-20T04:25:20.978Z,59.87
2022-12-20T04:30:22.737Z,59.18
2022-12-20T04:35:24.205Z,59.69
2022-12-20T04:40:25.680Z,59.18
2022-12-20T04:45:27.170Z,59.20
2022-12-20T04:50:28.633Z,59.20
2022-12-20T04:55:30.089Z,59.77
2022-12-20T05:00:32.264Z,60.31
2022-12-20T05:05:33.752Z,60.66
2022-12-20T05:10:35.233Z,60.53
2022-12-20T05:15:37.166Z,60.41
2022-12-20T05:20:38.689Z,60.39
2022-12-20T05:26:05.894Z,60.82
2022-12-20T05:31:07.422Z,60.20
2022-12-20T05:36:09.302Z,60.03
2022-12-20T05:41:10.782Z,60.26
2022-12-20T05:46:13.361Z,60.30
2022-12-20T05:51:14.905Z,60.15
2022-12-20T05:56:16.372Z,60.33
2022-12-20T06:01:18.382Z,60.63
2022-12-20T06:06:19.908Z,60.52
2022-12-20T06:11:27.657Z,60.45
2022-12-20T06:16:31.365Z,61.00
2022-12-20T06:21:32.931Z,61.54
2022-12-20T06:26:37.554Z,62.17
2022-12-20T06:31:39.069Z,62.77
2022-12-20T06:36:40.621Z,63.07
2022-12-20T06:41:42.096Z,62.64
2022-12-20T06:46:43.619Z,61.68
2022-12-20T06:51:45.161Z,62.43
2022-12-20T06:56:46.638Z,62.38
2022-12-20T07:01:48.277Z,63.15
2022-12-20T07:06:49.851Z,62.91
2022-12-20T07:11:52.106Z,63.12
2022-12-20T07:16:53.658Z,63.14
2022-12-20T07:21:55.199Z,63.52
2022-12-20T07:26:56.740Z,62.96
2022-12-20T07:31:58.494Z,63.16
2022-12-20T07:36:59.999Z,62.71
2022-12-20T07:42:01.853Z,62.78
2022-12-20T07:47:04.059Z,62.12
2022-12-20T07:52:05.824Z,62.41
2022-12-20T07:57:10.824Z,62.08
2022-12-20T08:02:15.667Z,63.38
2022-12-20T08:07:17.595Z,61.91
2022-12-20T08:12:19.144Z,61.85
2022-12-20T08:17:20.616Z,61.84
2022-12-20T08:22:23.044Z,61.65
2022-12-20T08:27:24.561Z,61.15
2022-12-20T08:32:26.103Z,61.23
2022-12-20T08:37:27.610Z,62.31
2022-12-20T08:42:29.493Z,61.63
2022-12-20T08:47:31.046Z,61.97
2022-12-20T08:52:32.520Z,62.11
2022-12-20T08:57:34.120Z,62.08
2022-12-20T09:02:38.181Z,62.10
2022-12-20T09:07:39.930Z,62.30
2022-12-20T09:12:41.445Z,62.81
2022-12-20T09:17:42.959Z,62.04
2022-12-20T09:22:44.465Z,62.32
2022-12-20T09:27:46.026Z,62.39
2022-12-20T09:32:47.507Z,63.14
2022-12-20T09:37:49.018Z,63.38
2022-12-20T09:42:50.548Z,65.58
2022-12-20T09:47:52.302Z,65.22
2022-12-20T09:52:55.981Z,64.93
2022-12-20T09:58:25.209Z,65.48
2022-12-20T10:03:30.020Z,66.09
2022-12-20T10:08:45.152Z,65.73
2022-12-20T10:14:17.580Z,65.84
2022-12-20T10:19:46.505Z,67.08
2022-12-20T10:25:14.298Z,66.88
2022-12-20T10:30:17.634Z,67.34
2022-12-20T10:35:22.413Z,66.10
2022-12-20T10:41:19.377Z,66.28
2022-12-20T10:46:08.108Z,65.28
2022-12-20T10:51:13.719Z,65.26
2022-12-20T10:56:22.253Z,64.27
2022-12-20T11:01:34.140Z,64.29
2022-12-20T11:06:38.367Z,64.36
2022-12-20T11:11:39.862Z,63.53
2022-12-20T11:16:41.606Z,62.73
2022-12-20T11:21:59.865Z,61.79
2022-12-20T11:27:28.321Z,62.42
2022-12-20T11:32:54.472Z,61.96
2022-12-20T11:38:33.211Z,61.02
2022-12-20T11:44:23.771Z,60.71
2022-12-20T11:49:35.017Z,60.39
2022-12-20T11:54:45.951Z,59.96
2022-12-20T11:59:50.862Z,60.12
2022-12-20T12:04:59.900Z,59.67
2022-12-20T12:10:24.538Z,59.41
2022-12-20T12:15:37.122Z,59.96
2022-12-20T12:20:54.873Z,59.37
2022-12-20T12:25:58.386Z,59.22
2022-12-20T12:31:03.814Z,60.03
2022-12-20T12:36:29.864Z,59.77
2022-12-20T12:41:59.680Z,60.34
2022-12-20T12:47:02.992Z,60.52
2022-12-20T12:52:05.160Z,59.52
2022-12-20T12:57:18.744Z,60.20
2022-12-20T13:02:24.960Z,61.35
2022-12-20T13:07:27.873Z,61.52
2022-12-20T13:12:38.470Z,61.30
2022-12-20T13:17:46.743Z,60.87
2022-12-20T13:23:12.777Z,60.95
2022-12-20T13:28:17.144Z,61.31
2022-12-20T13:33:20.453Z,60.73
2022-12-20T13:38:39.970Z,60.33
2022-12-20T13:43:44.827Z,60.15
2022-12-20T13:48:46.157Z,60.04
2022-12-20T13:54:00.697Z,60.37
2022-12-20T13:59:05.400Z,60.82
2022-12-20T14:04:07.325Z,60.16
2022-12-20T14:09:27.607Z,60.38
2022-12-20T14:14:29.088Z,60.94
2022-12-20T14:19:30.589Z,61.34
2022-12-20T14:24:32.055Z,61.10
2022-12-20T14:29:33.566Z,61.24
2022-12-20T14:34:41.294Z,61.34
2022-12-20T14:39:54.883Z,61.96
2022-12-20T14:45:14.315Z,62.71
2022-12-20T14:50:32.373Z,62.81
2022-12-20T14:55:36.509Z,62.54
2022-12-20T15:00:38.925Z,62.57
2022-12-20T15:05:48.389Z,63.36
2022-12-20T15:10:51.254Z,62.84
2022-12-20T15:15:52.799Z,62.54
2022-12-20T15:21:02.862Z,63.64
2022-12-20T15:26:04.535Z,63.00
2022-12-20T15:31:06.086Z,63.43
2022-12-20T15:36:07.863Z,63.59
2022-12-20T15:41:15.063Z,62.86
2022-12-20T15:46:17.226Z,62.33
2022-12-20T15:51:30.385Z,62.69
2022-12-20T15:56:31.864Z,63.10
2022-12-20T16:01:40.865Z,63.15
2022-12-20T16:06:43.631Z,63.88
2022-12-20T16:11:45.173Z,64.35
2022-12-20T16:16:47.707Z,64.87
2022-12-20T16:21:50.818Z,64.33
2022-12-20T16:26:52.280Z,64.87
2022-12-20T16:31:53.805Z,65.66
2022-12-20T16:36:55.328Z,64.72
2022-12-20T16:41:56.796Z,66.98
2022-12-20T16:46:58.715Z,66.79
2022-12-20T16:52:00.246Z,68.41
2022-12-20T16:57:10.552Z,66.63
2022-12-20T17:02:32.720Z,67.77
2022-12-20T17:07:41.136Z,68.13
2022-12-20T17:12:43.008Z,67.44
2022-12-20T17:17:44.606Z,66.30
2022-12-20T17:28:08.490Z,65.81
2022-12-20T17:33:14.245Z,65.81
2022-12-20T17:38:15.739Z,66.44
2022-12-20T17:43:17.199Z,66.14
2022-12-20T17:48:18.680Z,65.16
2022-12-20T17:53:21.006Z,65.15
2022-12-20T17:58:22.479Z,65.03
2022-12-20T18:04:01.471Z,67.66
2022-12-20T18:08:51.308Z,66.96
2022-12-20T18:13:54.135Z,66.55
2022-12-20T18:18:55.509Z,66.31
2022-12-20T18:23:57.079Z,65.68
2022-12-20T18:29:00.112Z,64.97
2022-12-20T18:34:10.280Z,64.84
2022-12-20T18:39:12.345Z,64.39
2022-12-20T18:44:22.935Z,64.05
2022-12-20T18:49:24.393Z,63.84
2022-12-20T18:54:25.870Z,64.88
2022-12-20T18:59:27.396Z,63.70
2022-12-20T19:04:28.904Z,64.76
2022-12-20T19:09:30.408Z,63.77
2022-12-20T19:14:31.903Z,62.71
2022-12-20T19:19:33.382Z,62.40
2022-12-20T19:24:34.860Z,61.50
2022-12-20T19:29:36.333Z,61.61
2022-12-20T19:34:37.849Z,61.56
2022-12-20T19:39:39.331Z,61.41
2022-12-20T19:44:40.854Z,60.20
2022-12-20T19:49:42.353Z,60.87
2022-12-20T19:54:43.825Z,60.96
2022-12-20T19:59:50.816Z,61.44
2022-12-20T20:04:55.135Z,61.20
2022-12-20T20:09:56.627Z,61.80
2022-12-20T20:14:58.092Z,62.27
2022-12-20T20:19:59.594Z,61.84
2022-12-20T20:25:01.079Z,61.98
2022-12-20T20:30:03.761Z,61.72
2022-12-20T20:35:05.466Z,62.93
2022-12-20T20:40:07.462Z,63.97
2022-12-20T20:45:09.330Z,63.59
2022-12-20T20:50:10.989Z,62.65
2022-12-20T20:55:12.495Z,62.57
2022-12-20T21:00:14.401Z,61.75
2022-12-20T21:06:06.268Z,61.25
2022-12-20T21:10:38.784Z,61.50
2022-12-20T21:15:43.433Z,62.02
2022-12-20T21:20:44.964Z,62.04
2022-12-20T21:25:54.771Z,62.00
2022-12-20T21:31:02.778Z,61.55
2022-12-20T21:36:06.054Z,61.26
2022-12-20T21:41:09.002Z,60.40
2022-12-20T21:46:11.458Z,60.05
2022-12-20T21:51:20.621Z,60.42
2022-12-20T21:56:22.256Z,58.78
2022-12-20T22:01:25.865Z,59.31
2022-12-20T22:06:28.039Z,59.94
2022-12-20T22:11:29.562Z,59.92
2022-12-20T22:16:33.348Z,59.93
2022-12-20T22:21:36.011Z,59.53
2022-12-20T22:26:40.735Z,60.17
2022-12-20T22:31:42.291Z,59.57
2022-12-20T22:36:43.773Z,60.09
2022-12-20T22:41:45.411Z,59.91
2022-12-20T22:46:46.893Z,59.92
2022-12-20T22:52:00.867Z,58.67
2022-12-20T22:57:10.319Z,59.82
2022-12-20T23:02:11.998Z,59.68
2022-12-20T23:07:13.719Z,59.41
2022-12-20T23:12:33.601Z,60.41
2022-12-20T23:17:35.076Z,60.07
2022-12-20T23:22:39.487Z,60.72
2022-12-20T23:27:42.113Z,60.78
2022-12-20T23:32:46.099Z,60.80
2022-12-20T23:37:47.658Z,60.39
2022-12-20T23:42:49.138Z,60.64
2022-12-20T23:47:50.622Z,60.63
2022-12-20T23:52:52.105Z,59.51
2022-12-20T23:57:53.561Z,60.21
